createdAt,value
2022-08-22T00:00:54.389Z,101211.13
2022-08-22T00:02:42.775Z,101183.84
2022-08-22T00:02:43.553Z,101184.88
2022-08-22T00:02:48.679Z,101180.50
2022-08-22T00:03:15.001Z,101204.06
2022-08-22T00:03:16.332Z,101204.16
2022-08-22T00:03:47.526Z,101208.22
2022-08-22T00:06:36.373Z,101208.66
2022-08-22T00:09:10.344Z,101208.66
2022-08-22T00:11:36.947Z,101208.66
2022-08-22T00:14:07.381Z,101209.88
2022-08-22T00:17:03.149Z,101211.16
2022-08-22T00:19:48.856Z,101209.25
2022-08-22T00:22:30.529Z,101209.66
2022-08-22T00:25:24.525Z,101209.88
2022-08-22T00:28:03.230Z,101203.81
2022-08-22T00:30:34.621Z,101213.00
2022-08-22T00:33:22.888Z,101213.59
2022-08-22T00:35:53.775Z,101215.28
2022-08-22T00:38:40.911Z,101211.09
2022-08-22T00:41:34.285Z,101220.72
2022-08-22T00:44:22.891Z,101220.72
2022-08-22T00:47:07.682Z,101211.97
2022-08-22T00:50:06.939Z,101219.88
2022-08-22T00:53:17.825Z,101221.34
2022-08-22T00:55:57.207Z,101216.31
2022-08-22T00:58:29.577Z,101210.47
2022-08-22T01:01:05.702Z,101217.78
2022-08-22T01:03:44.423Z,101212.09
2022-08-22T01:06:22.287Z,101212.09
2022-08-22T01:09:27.514Z,101219.03
2022-08-22T01:12:09.537Z,101215.06
2022-08-22T01:14:38.701Z,101214.44
2022-08-22T01:17:32.756Z,101213.97
2022-08-22T01:20:01.952Z,101216.91
2022-08-22T01:23:05.552Z,101213.59
2022-08-22T01:26:08.926Z,101216.94
2022-08-22T01:29:15.117Z,101220.91
2022-08-22T01:32:18.791Z,101227.19
2022-08-22T01:35:09.582Z,101227.00
2022-08-22T01:38:19.676Z,101222.13
2022-08-22T01:41:07.620Z,101222.78
2022-08-22T01:44:13.935Z,101228.41
2022-08-22T01:47:02.626Z,101219.41
2022-08-22T01:49:44.185Z,101224.66
2022-08-22T01:52:29.005Z,101230.75
2022-08-22T01:55:03.847Z,101228.22
2022-08-22T01:57:30.493Z,101222.78
2022-08-22T02:00:07.776Z,101225.69
2022-08-22T02:02:47.949Z,101229.25
2022-08-22T02:05:31.692Z,101226.53
2022-08-22T02:08:32.341Z,101222.13
2022-08-22T02:11:08.804Z,101221.50
2022-08-22T02:14:03.103Z,101222.34
2022-08-22T02:16:40.255Z,101224.03
2022-08-22T02:19:15.737Z,101223.81
2022-08-22T02:21:50.477Z,101222.34
2022-08-22T02:24:51.277Z,101228.81
2022-08-22T02:27:39.159Z,101234.06
2022-08-22T02:30:14.815Z,101236.97
2022-08-22T02:32:41.336Z,101232.59
2022-08-22T02:35:36.796Z,101227.78
2022-08-22T02:39:19.730Z,101231.75
2022-08-22T02:41:54.414Z,101224.00
2022-08-22T02:44:33.112Z,101226.94
2022-08-22T02:47:12.283Z,101231.13
2022-08-22T02:49:47.600Z,101226.06
2022-08-22T02:52:25.221Z,101223.34
2022-08-22T02:55:03.976Z,101223.13
2022-08-22T02:57:39.496Z,101223.16
2022-08-22T03:00:31.122Z,101222.97
2022-08-22T03:02:59.423Z,101228.59
2022-08-22T03:05:40.311Z,101223.56
2022-08-22T03:08:34.524Z,101223.34
2022-08-22T03:11:15.891Z,101233.56
2022-08-22T03:13:58.844Z,101237.34
2022-08-22T03:16:45.858Z,101221.03
2022-08-22T03:19:18.967Z,101232.31
2022-08-22T03:22:08.479Z,101232.94
2022-08-22T03:24:53.188Z,101223.53
2022-08-22T03:27:49.469Z,101227.09
2022-08-22T03:30:21.708Z,101227.50
2022-08-22T03:33:14.139Z,101222.06
2022-08-22T03:35:46.715Z,101227.69
2022-08-22T03:38:28.690Z,101225.81
2022-08-22T03:41:42.958Z,101223.69
2022-08-22T03:44:22.973Z,101231.22
2022-08-22T03:46:49.517Z,101233.69
2022-08-22T03:49:31.211Z,101232.19
2022-08-22T03:52:35.153Z,101232.19
2022-08-22T03:55:14.247Z,101233.84
2022-08-22T03:58:02.058Z,101237.63
2022-08-22T04:00:57.460Z,101235.94
2022-08-22T04:03:47.170Z,101235.94
2022-08-22T04:06:58.341Z,101239.69
2022-08-22T04:09:52.394Z,101238.03
2022-08-22T04:12:39.280Z,101244.69
2022-08-22T04:15:24.923Z,101242.19
2022-08-22T04:18:28.758Z,101243.41
2022-08-22T04:21:11.898Z,101245.75
2022-08-22T04:23:44.057Z,101244.91
2022-08-22T04:26:17.338Z,101243.03
2022-08-22T04:28:50.149Z,101241.28
2022-08-22T04:31:46.488Z,101250.34
2022-08-22T04:34:19.454Z,101255.78
2022-08-22T04:36:52.304Z,101258.69
2022-08-22T04:39:46.730Z,101254.72
2022-08-22T04:42:34.937Z,101260.94
2022-08-22T04:45:17.071Z,101256.16
2022-08-22T04:47:54.018Z,101262.25
2022-08-22T04:50:24.107Z,101257.81
2022-08-22T04:52:53.649Z,101259.91
2022-08-22T04:55:56.889Z,101252.78
2022-08-22T04:58:42.014Z,101257.38
2022-08-22T05:01:19.909Z,101260.09
2022-08-22T05:04:01.789Z,101268.25
2022-08-22T05:06:32.439Z,101275.78
2022-08-22T05:09:05.433Z,101273.25
2022-08-22T05:11:34.555Z,101267.63
2022-08-22T05:14:16.670Z,101275.56
2022-08-22T05:16:48.049Z,101277.66
2022-08-22T05:19:28.419Z,101276.38
2022-08-22T05:21:57.197Z,101285.94
2022-08-22T05:24:38.634Z,101283.69
2022-08-22T05:27:14.579Z,101290.59
2022-08-22T05:29:45.917Z,101292.50
2022-08-22T05:32:38.079Z,101290.66
2022-08-22T05:35:08.694Z,101293.75
2022-08-22T05:37:43.946Z,101297.47
2022-08-22T05:40:24.490Z,101298.91
2022-08-22T05:42:52.520Z,101284.50
2022-08-22T05:45:21.337Z,101294.13
2022-08-22T05:47:56.113Z,101303.38
2022-08-22T05:50:35.848Z,101297.94
2022-08-22T05:53:43.312Z,101303.34
2022-08-22T05:56:20.779Z,101302.50
2022-08-22T05:59:00.043Z,101301.47
2022-08-22T06:01:43.133Z,101303.75
2022-08-22T06:04:37.286Z,101311.94
2022-08-22T06:07:16.208Z,101303.34
2022-08-22T06:09:49.100Z,101304.41
2022-08-22T06:12:22.188Z,101321.75
2022-08-22T06:15:30.558Z,101311.09
2022-08-22T06:18:01.858Z,101301.25
2022-08-22T06:20:39.597Z,101309.84
2022-08-22T06:23:08.410Z,101314.69
2022-08-22T06:25:38.860Z,101315.28
2022-08-22T06:28:12.426Z,101308.53
2022-08-22T06:30:39.914Z,101309.38
2022-08-22T06:33:12.738Z,101316.59
2022-08-22T06:36:00.145Z,101313.63
2022-08-22T06:38:34.262Z,101318.59
2022-08-22T06:41:07.543Z,101322.78
2022-08-22T06:43:41.647Z,101320.47
2022-08-22T06:46:10.059Z,101325.06
2022-08-22T06:48:37.853Z,101318.97
2022-08-22T06:51:08.698Z,101323.19
2022-08-22T06:53:49.960Z,101320.63
2022-08-22T06:56:24.349Z,101331.16
2022-08-22T06:58:54.551Z,101328.81
2022-08-22T07:01:26.347Z,101332.13
2022-08-22T07:03:58.249Z,101334.84
2022-08-22T07:06:35.329Z,101330.03
2022-08-22T07:09:06.207Z,101334.00
2022-08-22T07:11:39.583Z,101338.19
2022-08-22T07:14:11.568Z,101334.84
2022-08-22T07:16:56.706Z,101335.06
2022-08-22T07:19:36.949Z,101332.06
2022-08-22T07:22:16.841Z,101337.91
2022-08-22T07:24:48.617Z,101339.38
2022-08-22T07:27:41.278Z,101335.25
2022-08-22T07:30:12.976Z,101346.34
2022-08-22T07:33:25.937Z,101339.09
2022-08-22T07:35:53.423Z,101337.22
2022-08-22T07:38:43.774Z,101341.81
2022-08-22T07:41:10.352Z,101337.41
2022-08-22T07:43:52.202Z,101331.97
2022-08-22T07:46:27.462Z,101333.50
2022-08-22T07:49:09.181Z,101335.75
2022-08-22T07:51:44.217Z,101342.03
2022-08-22T07:54:15.218Z,101342.50
2022-08-22T07:56:48.793Z,101343.06
2022-08-22T07:59:20.047Z,101341.44
2022-08-22T08:01:56.947Z,101341.66
2022-08-22T08:04:31.939Z,101342.09
2022-08-22T08:07:00.924Z,101340.41
2022-08-22T08:09:32.992Z,101337.91
2022-08-22T08:12:02.195Z,101346.91
2022-08-22T08:14:29.978Z,101351.50
2022-08-22T08:17:06.998Z,101347.78
2022-08-22T08:19:39.209Z,101342.97
2022-08-22T08:22:06.467Z,101350.09
2022-08-22T08:24:40.191Z,101347.25
2022-08-22T08:27:42.793Z,101342.22
2022-08-22T08:30:17.142Z,101351.66
2022-08-22T08:32:49.412Z,101351.66
2022-08-22T08:35:23.952Z,101356.19
2022-08-22T08:38:02.067Z,101346.63
2022-08-22T08:40:31.477Z,101342.00
2022-08-22T08:43:22.669Z,101348.66
2022-08-22T08:45:49.226Z,101353.31
2022-08-22T08:48:40.333Z,101339.28
2022-08-22T08:51:23.727Z,101352.69
2022-08-22T08:54:24.053Z,101348.50
2022-08-22T08:57:20.185Z,101348.09
2022-08-22T09:00:13.228Z,101343.91
2022-08-22T09:03:12.165Z,101348.72
2022-08-22T09:05:48.340Z,101354.78
2022-08-22T09:08:17.671Z,101348.28
2022-08-22T09:11:09.557Z,101351.88
2022-08-22T09:14:02.580Z,101356.47
2022-08-22T09:16:58.748Z,101354.84
2022-08-22T09:19:44.522Z,101356.13
2022-08-22T09:22:49.877Z,101359.44
2022-08-22T09:25:23.580Z,101350.22
2022-08-22T09:28:14.361Z,101351.53
2022-08-22T09:31:17.014Z,101354.91
2022-08-22T09:33:59.575Z,101354.91
2022-08-22T09:36:55.245Z,101352.81
2022-08-22T09:40:19.673Z,101354.88
2022-08-22T09:43:08.821Z,101351.53
2022-08-22T09:45:40.832Z,101355.34
2022-08-22T09:48:21.288Z,101351.31
2022-08-22T09:51:13.628Z,101356.13
2022-08-22T09:54:07.728Z,101350.47
2022-08-22T09:57:07.381Z,101355.78
2022-08-22T09:59:49.182Z,101354.34
2022-08-22T10:02:36.612Z,101349.94
2022-08-22T10:05:43.988Z,101350.00
2022-08-22T10:08:48.375Z,101348.34
2022-08-22T10:11:38.761Z,101351.69
2022-08-22T10:14:15.656Z,101351.69
2022-08-22T10:17:02.459Z,101344.38
2022-08-22T10:19:35.012Z,101342.03
2022-08-22T10:22:16.851Z,101349.56
2022-08-22T10:24:55.695Z,101338.00
2022-08-22T10:27:41.234Z,101342.47
2022-08-22T10:30:17.736Z,101343.50
2022-08-22T10:33:05.807Z,101345.75
2022-08-22T10:36:23.687Z,101341.72
2022-08-22T10:38:55.797Z,101347.44
2022-08-22T10:41:42.668Z,101349.66
2022-08-22T10:44:21.560Z,101351.47
2022-08-22T10:47:00.972Z,101346.97
2022-08-22T10:49:39.278Z,101343.56
2022-08-22T10:52:15.678Z,101345.41
2022-08-22T10:55:09.878Z,101348.91
2022-08-22T10:57:39.537Z,101340.13
2022-08-22T11:00:16.159Z,101349.97
2022-08-22T11:03:14.522Z,101350.34
2022-08-22T11:05:51.009Z,101354.81
2022-08-22T11:08:20.641Z,101359.72
2022-08-22T11:10:53.600Z,101351.53
2022-08-22T11:13:32.800Z,101354.66
2022-08-22T11:16:20.864Z,101343.59
2022-08-22T11:19:15.152Z,101352.34
2022-08-22T11:21:55.242Z,101345.66
2022-08-22T11:24:35.700Z,101353.41
2022-08-22T11:27:54.329Z,101354.16
2022-08-22T11:30:32.025Z,101352.00
2022-08-22T11:33:46.492Z,101346.78
2022-08-22T11:36:17.439Z,101353.97
2022-08-22T11:38:58.145Z,101353.72
2022-08-22T11:42:05.492Z,101350.28
2022-08-22T11:44:50.461Z,101358.06
2022-08-22T11:47:24.813Z,101361.22
2022-08-22T11:49:57.408Z,101353.09
2022-08-22T11:52:42.771Z,101350.97
2022-08-22T11:55:33.269Z,101347.03
2022-08-22T11:58:28.944Z,101349.59
2022-08-22T12:01:02.428Z,101357.94
2022-08-22T12:03:32.464Z,101351.13
2022-08-22T12:06:36.617Z,101349.22
2022-08-22T12:09:35.925Z,101348.34
2022-08-22T12:12:22.820Z,101348.44
2022-08-22T12:14:59.335Z,101346.88
2022-08-22T12:17:55.314Z,101334.34
2022-08-22T12:20:49.301Z,101336.69
2022-08-22T12:23:40.793Z,101333.50
2022-08-22T12:26:29.682Z,101336.69
2022-08-22T12:29:18.051Z,101337.13
2022-08-22T12:32:10.268Z,101337.28
2022-08-22T12:34:53.876Z,101327.34
2022-08-22T12:37:55.855Z,101327.84
2022-08-22T12:40:28.166Z,101315.72
2022-08-22T12:43:07.750Z,101314.31
2022-08-22T12:45:46.487Z,101311.63
2022-08-22T12:48:20.453Z,101308.13
2022-08-22T12:51:31.928Z,101298.69
2022-08-22T12:54:21.001Z,101311.50
2022-08-22T12:56:47.704Z,101307.47
2022-08-22T12:59:29.406Z,101306.84
2022-08-22T13:02:02.355Z,101303.25
2022-08-22T13:04:34.372Z,101304.94
2022-08-22T13:07:08.606Z,101304.31
2022-08-22T13:09:39.991Z,101291.88
2022-08-22T13:12:20.056Z,101297.31
2022-08-22T13:14:50.471Z,101298.19
2022-08-22T13:17:24.375Z,101294.00
2022-08-22T13:20:10.796Z,101297.13
2022-08-22T13:22:45.268Z,101292.00
2022-08-22T13:25:25.672Z,101295.09
2022-08-22T13:28:04.212Z,101297.78
2022-08-22T13:30:38.903Z,101297.34
2022-08-22T13:33:12.835Z,101295.06
2022-08-22T13:35:54.045Z,101293.63
2022-08-22T13:38:32.429Z,101295.75
2022-08-22T13:41:02.058Z,101296.81
2022-08-22T13:43:34.404Z,101297.31
2022-08-22T13:46:06.237Z,101292.34
2022-08-22T13:48:56.649Z,101300.19
2022-08-22T13:51:46.031Z,101298.97
2022-08-22T13:54:16.160Z,101297.78
2022-08-22T13:56:56.379Z,101300.81
2022-08-22T13:59:52.505Z,101291.38
2022-08-22T14:02:43.821Z,101294.75
2022-08-22T14:05:24.047Z,101293.94
2022-08-22T14:08:12.514Z,101291.06
2022-08-22T14:10:52.198Z,101287.25
2022-08-22T14:13:48.800Z,101289.53
2022-08-22T14:16:39.656Z,101285.09
2022-08-22T14:19:11.263Z,101290.34
2022-08-22T14:21:50.776Z,101291.81
2022-08-22T14:24:26.903Z,101284.06
2022-08-22T14:27:05.246Z,101283.59
2022-08-22T14:29:54.501Z,101282.16
2022-08-22T14:32:22.977Z,101275.06
2022-08-22T14:35:21.687Z,101285.09
2022-08-22T14:38:19.999Z,101276.50
2022-08-22T14:40:52.785Z,101280.75
2022-08-22T14:43:29.069Z,101275.91
2022-08-22T14:46:05.746Z,101265.00
2022-08-22T14:48:44.144Z,101269.59
2022-08-22T14:51:21.420Z,101271.13
2022-08-22T14:53:50.061Z,101263.84
2022-08-22T14:56:24.511Z,101269.31
2022-08-22T14:58:58.850Z,101273.09
2022-08-22T15:01:29.656Z,101273.34
2022-08-22T15:04:02.437Z,101276.91
2022-08-22T15:06:55.128Z,101275.41
2022-08-22T15:09:30.953Z,101278.09
2022-08-22T15:11:58.160Z,101283.38
2022-08-22T15:14:37.357Z,101280.22
2022-08-22T15:17:07.325Z,101272.63
2022-08-22T15:19:36.861Z,101281.69
2022-08-22T15:22:20.333Z,101281.03
2022-08-22T15:24:52.729Z,101274.38
2022-08-22T15:27:25.423Z,101282.56
2022-08-22T15:30:02.589Z,101285.50
2022-08-22T15:32:32.130Z,101286.34
2022-08-22T15:35:09.001Z,101280.81
2022-08-22T15:38:00.180Z,101281.44
2022-08-22T15:40:45.847Z,101286.22
2022-08-22T15:43:15.774Z,101285.03
2022-08-22T15:45:43.937Z,101288.81
2022-08-22T15:48:33.947Z,101282.38
2022-08-22T15:51:09.199Z,101285.03
2022-08-22T15:53:45.022Z,101286.28
2022-08-22T15:56:11.665Z,101283.13
2022-08-22T15:58:48.086Z,101285.69
2022-08-22T16:01:20.653Z,101291.56
2022-08-22T16:04:02.054Z,101288.41
2022-08-22T16:06:43.785Z,101296.19
2022-08-22T16:09:33.049Z,101282.78
2022-08-22T16:12:03.792Z,101286.72
2022-08-22T16:14:33.514Z,101283.41
2022-08-22T16:17:03.616Z,101291.41
2022-08-22T16:19:33.073Z,101292.03
2022-08-22T16:21:59.869Z,101288.25
2022-08-22T16:24:26.735Z,101298.75
2022-08-22T16:26:53.593Z,101297.47
2022-08-22T16:29:41.898Z,101300.88
2022-08-22T16:32:12.035Z,101301.94
2022-08-22T16:34:43.854Z,101310.13
2022-08-22T16:37:18.103Z,101300.47
2022-08-22T16:39:52.290Z,101311.81
2022-08-22T16:42:21.788Z,101306.78
2022-08-22T16:45:17.623Z,101308.03
2022-08-22T16:47:52.899Z,101310.16
2022-08-22T16:50:33.712Z,101314.38
2022-08-22T16:53:09.383Z,101308.69
2022-08-22T16:55:44.703Z,101315.81
2022-08-22T16:58:17.111Z,101315.00
2022-08-22T17:00:58.974Z,101316.47
2022-08-22T17:04:04.153Z,101317.13
2022-08-22T17:06:49.209Z,101309.34
2022-08-22T17:09:37.043Z,101316.91
2022-08-22T17:12:16.483Z,101320.28
2022-08-22T17:14:45.718Z,101317.13
2022-08-22T17:17:25.406Z,101311.88
2022-08-22T17:20:16.619Z,101320.88
2022-08-22T17:22:45.996Z,101318.16
2022-08-22T17:25:31.067Z,101317.97
2022-08-22T17:28:07.750Z,101313.53
2022-08-22T17:30:44.485Z,101325.06
2022-08-22T17:33:34.196Z,101316.69
2022-08-22T17:36:26.487Z,101322.28
2022-08-22T17:39:12.515Z,101317.28
2022-08-22T17:42:08.426Z,101317.25
2022-08-22T17:44:55.471Z,101314.34
2022-08-22T17:47:32.012Z,101322.50
2022-08-22T17:50:21.848Z,101316.84
2022-08-22T17:52:59.848Z,101331.69
2022-08-22T17:55:39.740Z,101328.94
2022-08-22T17:58:37.619Z,101327.47
2022-08-22T18:01:13.513Z,101332.50
2022-08-22T18:03:52.341Z,101335.22
2022-08-22T18:06:26.512Z,101331.03
2022-08-22T18:09:24.571Z,101337.09
2022-08-22T18:12:04.668Z,101336.03
2022-08-22T18:14:31.220Z,101343.78
2022-08-22T18:17:00.755Z,101345.44
2022-08-22T18:19:43.654Z,101341.22
2022-08-22T18:22:28.749Z,101350.22
2022-08-22T18:25:22.227Z,101349.38
2022-08-22T18:27:57.712Z,101353.16
2022-08-22T18:30:29.762Z,101347.72
2022-08-22T18:33:05.233Z,101346.19
2022-08-22T18:36:01.246Z,101345.78
2022-08-22T18:38:45.740Z,101349.34
2022-08-22T18:41:12.283Z,101350.19
2022-08-22T18:43:48.260Z,101352.41
2022-08-22T18:46:40.240Z,101354.50
2022-08-22T18:49:19.698Z,101359.09
2022-08-22T18:52:13.701Z,101360.13
2022-08-22T18:55:08.291Z,101364.31
2022-08-22T18:57:49.719Z,101357.00
2022-08-22T19:00:46.102Z,101354.91
2022-08-22T19:03:31.221Z,101356.38
2022-08-22T19:05:57.770Z,101352.81
2022-08-22T19:08:30.167Z,101353.66
2022-08-22T19:11:03.101Z,101352.81
2022-08-22T19:14:10.294Z,101346.69
2022-08-22T19:17:03.147Z,101350.94
2022-08-22T19:20:27.777Z,101344.88
2022-08-22T19:23:32.759Z,101344.94
2022-08-22T19:26:20.573Z,101349.47
2022-08-22T19:28:47.850Z,101350.31
2022-08-22T19:31:41.838Z,101351.75
2022-08-22T19:34:29.394Z,101351.56
2022-08-22T19:37:30.509Z,101359.50
2022-08-22T19:40:48.935Z,101360.97
2022-08-22T19:43:30.542Z,101366.34
2022-08-22T19:46:00.059Z,101364.47
2022-08-22T19:48:44.491Z,101372.22
2022-08-22T19:51:25.911Z,101364.28
2022-08-22T19:53:57.644Z,101370.06
2022-08-22T19:56:43.034Z,101371.72
2022-08-22T19:59:37.912Z,101375.69
2022-08-22T20:02:04.548Z,101368.78
2022-08-22T20:04:33.763Z,101369.63
2022-08-22T20:07:26.220Z,101371.50
2022-08-22T20:10:16.856Z,101378.00
2022-08-22T20:12:49.473Z,101378.19
2022-08-22T20:15:23.603Z,101379.69
2022-08-22T20:20:55.599Z,101378.84
2022-08-22T20:23:30.594Z,101384.28
2022-08-22T20:25:58.025Z,101382.19
2022-08-22T20:28:34.010Z,101384.06
2022-08-22T20:31:05.909Z,101390.97
2022-08-22T20:33:40.060Z,101385.94
2022-08-22T20:36:16.699Z,101389.31
2022-08-22T20:39:01.669Z,101389.94
2022-08-22T20:41:32.495Z,101387.22
2022-08-22T20:44:06.150Z,101378.44
2022-08-22T20:46:44.800Z,101380.31
2022-08-22T20:49:25.303Z,101386.38
2022-08-22T20:52:01.920Z,101382.59
2022-08-22T20:54:31.365Z,101387.41
2022-08-22T20:57:04.201Z,101384.28
2022-08-22T20:59:41.508Z,101388.88
2022-08-22T21:02:18.206Z,101390.75
2022-08-22T21:05:01.846Z,101390.97
2022-08-22T21:07:32.620Z,101394.50
2022-08-22T21:10:37.009Z,101398.91
2022-08-22T21:13:19.631Z,101392.44
2022-08-22T21:15:48.253Z,101394.31
2022-08-22T21:18:35.084Z,101390.97
2022-08-22T21:21:17.014Z,101396.81
2022-08-22T21:23:50.377Z,101397.44
2022-08-22T21:26:25.145Z,101386.34
2022-08-22T21:29:08.813Z,101383.84
2022-08-22T21:31:42.486Z,101379.63
2022-08-22T21:34:19.900Z,101372.31
2022-08-22T21:36:50.470Z,101369.78
2022-08-22T21:39:30.615Z,101375.03
2022-08-22T21:41:59.984Z,101374.19
2022-08-22T21:44:35.653Z,101377.16
2022-08-22T21:47:28.548Z,101380.91
2022-08-22T21:50:13.900Z,101378.19
2022-08-22T21:52:56.298Z,101383.63
2022-08-22T21:55:43.080Z,101369.84
2022-08-22T21:58:30.974Z,101373.81
2022-08-22T22:01:32.377Z,101368.16
2022-08-22T22:03:59.504Z,101375.47
2022-08-22T22:06:26.573Z,101363.75
2022-08-22T22:08:53.450Z,101375.06
2022-08-22T22:11:20.215Z,101362.75
2022-08-22T22:13:46.962Z,101364.41
2022-08-22T22:16:17.963Z,101355.25
2022-08-22T22:18:44.564Z,101357.31
2022-08-22T22:21:11.206Z,101351.28
2022-08-22T22:23:37.815Z,101350.66
2022-08-22T22:26:06.042Z,101343.72
2022-08-22T22:28:41.838Z,101352.72
2022-08-22T22:31:09.649Z,101356.69
2022-08-22T22:33:39.549Z,101355.00
2022-08-22T22:36:10.508Z,101357.72
2022-08-22T22:38:39.371Z,101355.19
2022-08-22T22:41:06.020Z,101352.06
2022-08-22T22:43:33.206Z,101350.81
2022-08-22T22:45:59.870Z,101351.44
2022-08-22T22:48:26.626Z,101339.72
2022-08-22T22:50:54.109Z,101337.63
2022-08-22T22:53:38.715Z,101334.50
2022-08-22T22:56:10.806Z,101342.25
2022-08-22T22:58:40.293Z,101340.34
2022-08-22T23:01:20.014Z,101347.47
2022-08-22T23:03:47.807Z,101348.56
2022-08-22T23:06:19.360Z,101347.53
2022-08-22T23:08:46.537Z,101340.41
2022-08-22T23:11:20.153Z,101334.34
2022-08-22T23:13:48.388Z,101336.00
2022-08-22T23:16:18.169Z,101337.28
2022-08-22T23:18:45.429Z,101339.38
2022-08-22T23:21:18.296Z,101342.50
2022-08-22T23:23:45.764Z,101338.31
2022-08-22T23:26:13.442Z,101343.34
2022-08-22T23:28:40.423Z,101334.41
2022-08-22T23:31:16.741Z,101341.72
2022-08-22T23:33:44.713Z,101341.47
2022-08-22T23:36:15.602Z,101339.22
2022-08-22T23:38:42.718Z,101342.09
2022-08-22T23:41:11.755Z,101341.47
2022-08-22T23:43:43.297Z,101333.94
2022-08-22T23:46:10.934Z,101334.16
2022-08-22T23:48:37.868Z,101331.22
2022-08-22T23:51:05.073Z,101335.25
2022-08-22T23:53:32.025Z,101334.81
2022-08-22T23:56:22.396Z,101333.72
2022-08-22T23:58:51.184Z,101331.78
